sensor_id;sensor_type;location;lat;lon;timestamp;pressure;altitude;pressure_sealevel;temperature;humidity
60228;BME280;46091;46.512;6.626;2023-03-31T05:23:57;96126.50;;;14.39;63.66
60228;BME280;46091;46.512;6.626;2023-03-31T05:26:01;96126.03;;;14.65;63.18
60228;BME280;46091;46.512;6.626;2023-03-31T05:28:04;96121.38;;;14.84;62.51
60228;BME280;46091;46.512;6.626;2023-03-31T05:30:08;96126.97;;;14.99;62.27
60228;BME280;46091;46.512;6.626;2023-03-31T05:32:11;96120.00;;;15.10;61.97
60228;BME280;46091;46.512;6.626;2023-03-31T05:34:14;96112.19;;;15.20;61.46
60228;BME280;46091;46.512;6.626;2023-03-31T05:36:17;96112.03;;;15.27;61.34
60228;BME280;46091;46.512;6.626;2023-03-31T05:38:21;96109.78;;;15.35;60.98
60228;BME280;46091;46.512;6.626;2023-03-31T05:40:25;96124.03;;;15.41;60.58
60228;BME280;46091;46.512;6.626;2023-03-31T05:42:28;96136.63;;;15.46;60.67
60228;BME280;46091;46.512;6.626;2023-03-31T05:44:31;96130.00;;;15.48;60.16
60228;BME280;46091;46.512;6.626;2023-03-31T05:46:34;96135.88;;;15.50;60.04
60228;BME280;46091;46.512;6.626;2023-03-31T05:48:37;96115.16;;;15.52;59.83
60228;BME280;46091;46.512;6.626;2023-03-31T05:50:40;96127.19;;;15.55;59.62
60228;BME280;46091;46.512;6.626;2023-03-31T05:52:44;96127.75;;;15.57;59.61
60228;BME280;46091;46.512;6.626;2023-03-31T05:54:47;96124.84;;;15.58;59.16
60228;BME280;46091;46.512;6.626;2023-03-31T05:56:51;96131.78;;;15.59;59.35
60228;BME280;46091;46.512;6.626;2023-03-31T05:58:54;96138.50;;;15.62;59.21
60228;BME280;46091;46.512;6.626;2023-03-31T06:01:02;96136.75;;;15.67;59.14
60228;BME280;46091;46.512;6.626;2023-03-31T06:03:08;96144.25;;;15.70;58.83
60228;BME280;46091;46.512;6.626;2023-03-31T06:05:11;96149.59;;;15.70;58.68
60228;BME280;46091;46.512;6.626;2023-03-31T06:07:14;96157.59;;;15.70;58.30
60228;BME280;46091;46.512;6.626;2023-03-31T06:09:18;96165.56;;;15.70;58.54
60228;BME280;46091;46.512;6.626;2023-03-31T06:11:22;96153.31;;;15.69;58.37
60228;BME280;46091;46.512;6.626;2023-03-31T06:13:26;96159.19;;;15.71;58.18
60228;BME280;46091;46.512;6.626;2023-03-31T06:15:28;96172.06;;;15.75;58.38
60228;BME280;46091;46.512;6.626;2023-03-31T06:17:32;96181.09;;;15.73;58.18
60228;BME280;46091;46.512;6.626;2023-03-31T06:19:37;96185.59;;;15.73;58.26
60228;BME280;46091;46.512;6.626;2023-03-31T06:21:40;96174.72;;;15.75;58.24
60228;BME280;46091;46.512;6.626;2023-03-31T06:23:44;96176.91;;;15.78;58.27
60228;BME280;46091;46.512;6.626;2023-03-31T06:25:47;96180.94;;;15.80;58.28
60228;BME280;46091;46.512;6.626;2023-03-31T06:27:52;96183.59;;;15.80;58.12
60228;BME280;46091;46.512;6.626;2023-03-31T06:29:58;96188.13;;;15.80;58.01
60228;BME280;46091;46.512;6.626;2023-03-31T06:32:01;96186.75;;;15.77;57.98
60228;BME280;46091;46.512;6.626;2023-03-31T06:34:05;96185.94;;;15.77;58.23
60228;BME280;46091;46.512;6.626;2023-03-31T06:36:09;96191.53;;;15.75;58.13
60228;BME280;46091;46.512;6.626;2023-03-31T06:38:13;96197.19;;;15.79;58.08
60228;BME280;46091;46.512;6.626;2023-03-31T06:40:17;96173.75;;;15.81;58.19
60228;BME280;46091;46.512;6.626;2023-03-31T06:42:20;96191.34;;;15.82;58.23
60228;BME280;46091;46.512;6.626;2023-03-31T06:44:23;96184.72;;;15.84;58.11
60228;BME280;46091;46.512;6.626;2023-03-31T06:46:27;96165.75;;;15.81;57.88
60228;BME280;46091;46.512;6.626;2023-03-31T06:48:30;96163.34;;;15.79;57.79
60228;BME280;46091;46.512;6.626;2023-03-31T06:50:36;96184.41;;;15.81;57.97
60228;BME280;46091;46.512;6.626;2023-03-31T06:52:39;96193.53;;;15.85;57.98
60228;BME280;46091;46.512;6.626;2023-03-31T06:54:42;96183.22;;;15.88;57.85
60228;BME280;46091;46.512;6.626;2023-03-31T06:56:45;96187.25;;;15.91;57.93
60228;BME280;46091;46.512;6.626;2023-03-31T06:58:48;96186.75;;;15.94;57.66
60228;BME280;46091;46.512;6.626;2023-03-31T07:00:51;96202.28;;;15.97;57.68
60228;BME280;46091;46.512;6.626;2023-03-31T07:02:56;96206.56;;;15.98;57.71
60228;BME280;46091;46.512;6.626;2023-03-31T07:04:59;96206.78;;;15.96;57.61
60228;BME280;46091;46.512;6.626;2023-03-31T07:07:02;96199.03;;;15.95;57.75
60228;BME280;46091;46.512;6.626;2023-03-31T07:09:06;96211.00;;;15.92;57.90
60228;BME280;46091;46.512;6.626;2023-03-31T07:11:09;96201.16;;;15.93;57.62
60228;BME280;46091;46.512;6.626;2023-03-31T07:13:14;96190.47;;;15.93;57.61
60228;BME280;46091;46.512;6.626;2023-03-31T07:15:17;96181.69;;;15.92;57.68
60228;BME280;46091;46.512;6.626;2023-03-31T07:17:21;96188.88;;;15.92;57.63
60228;BME280;46091;46.512;6.626;2023-03-31T07:19:29;96192.59;;;15.91;57.57
60228;BME280;46091;46.512;6.626;2023-03-31T07:21:37;96190.47;;;15.93;57.73
60228;BME280;46091;46.512;6.626;2023-03-31T07:23:40;96178.50;;;15.95;57.47
60228;BME280;46091;46.512;6.626;2023-03-31T07:25:43;96187.31;;;15.96;57.49
60228;BME280;46091;46.512;6.626;2023-03-31T07:27:46;96192.91;;;15.94;57.54
60228;BME280;46091;46.512;6.626;2023-03-31T07:29:49;96190.22;;;15.94;57.50
60228;BME280;46091;46.512;6.626;2023-03-31T07:31:51;96184.91;;;15.94;57.44
60228;BME280;46091;46.512;6.626;2023-03-31T07:33:54;96181.69;;;15.92;57.67
60228;BME280;46091;46.512;6.626;2023-03-31T07:36:03;96185.63;;;15.90;57.50
60228;BME280;46091;46.512;6.626;2023-03-31T07:38:14;96182.97;;;15.90;57.50
60228;BME280;46091;46.512;6.626;2023-03-31T07:40:19;96177.41;;;15.91;57.58
60228;BME280;46091;46.512;6.626;2023-03-31T07:42:23;96179.25;;;15.91;57.73
60228;BME280;46091;46.512;6.626;2023-03-31T07:44:27;96158.97;;;15.90;57.68
60228;BME280;46091;46.512;6.626;2023-03-31T07:46:32;96162.53;;;15.95;57.48
60228;BME280;46091;46.512;6.626;2023-03-31T07:48:35;96170.06;;;15.98;57.48
60228;BME280;46091;46.512;6.626;2023-03-31T07:50:38;96172.47;;;16.00;57.31
60228;BME280;46091;46.512;6.626;2023-03-31T07:52:43;96168.19;;;15.99;57.29
60228;BME280;46091;46.512;6.626;2023-03-31T07:54:47;96158.59;;;15.98;57.33
60228;BME280;46091;46.512;6.626;2023-03-31T07:56:51;96159.66;;;15.97;57.50
60228;BME280;46091;46.512;6.626;2023-03-31T07:58:54;96154.78;;;15.94;57.36
60228;BME280;46091;46.512;6.626;2023-03-31T08:00:58;96167.16;;;16.00;57.43
60228;BME280;46091;46.512;6.626;2023-03-31T08:03:01;96157.34;;;16.06;57.38
60228;BME280;46091;46.512;6.626;2023-03-31T08:05:05;96161.38;;;16.08;57.13
60228;BME280;46091;46.512;6.626;2023-03-31T08:07:09;96166.72;;;16.08;57.15
60228;BME280;46091;46.512;6.626;2023-03-31T08:09:14;96162.44;;;16.07;57.17
60228;BME280;46091;46.512;6.626;2023-03-31T08:11:18;96160.94;;;16.11;57.03
60228;BME280;46091;46.512;6.626;2023-03-31T08:13:22;96158.25;;;16.11;56.99
60228;BME280;46091;46.512;6.626;2023-03-31T08:15:24;96159.94;;;16.17;56.96
60228;BME280;46091;46.512;6.626;2023-03-31T08:17:27;96153.34;;;16.20;56.90
60228;BME280;46091;46.512;6.626;2023-03-31T08:19:35;96164.81;;;16.20;56.86
60228;BME280;46091;46.512;6.626;2023-03-31T08:21:39;96156.56;;;16.22;56.79
60228;BME280;46091;46.512;6.626;2023-03-31T08:23:42;96173.38;;;16.22;56.90
60228;BME280;46091;46.512;6.626;2023-03-31T08:25:47;96175.22;;;16.22;56.69
60228;BME280;46091;46.512;6.626;2023-03-31T08:27:50;96180.81;;;16.20;56.57
60228;BME280;46091;46.512;6.626;2023-03-31T08:29:54;96169.56;;;16.18;56.62
60228;BME280;46091;46.512;6.626;2023-03-31T08:31:58;96183.13;;;16.17;56.55
60228;BME280;46091;46.512;6.626;2023-03-31T08:34:02;96182.88;;;16.18;56.57
60228;BME280;46091;46.512;6.626;2023-03-31T08:36:07;96184.50;;;16.19;56.21
60228;BME280;46091;46.512;6.626;2023-03-31T08:38:11;96170.84;;;16.16;56.26
60228;BME280;46091;46.512;6.626;2023-03-31T08:40:18;96182.06;;;16.18;55.99
60228;BME280;46091;46.512;6.626;2023-03-31T08:42:33;96182.41;;;16.21;56.03
60228;BME280;46091;46.512;6.626;2023-03-31T08:44:41;96177.41;;;16.25;55.82
60228;BME280;46091;46.512;6.626;2023-03-31T08:46:48;96183.59;;;16.30;55.44
60228;BME280;46091;46.512;6.626;2023-03-31T08:48:54;96184.44;;;16.31;55.27
60228;BME280;46091;46.512;6.626;2023-03-31T08:51:02;96178.06;;;16.32;55.41
60228;BME280;46091;46.512;6.626;2023-03-31T08:53:21;96181.28;;;16.34;55.25
60228;BME280;46091;46.512;6.626;2023-03-31T08:55:34;96170.09;;;16.37;55.28
60228;BME280;46091;46.512;6.626;2023-03-31T08:57:49;96180.78;;;16.37;55.32
60228;BME280;46091;46.512;6.626;2023-03-31T08:59:54;96182.13;;;16.40;55.16
60228;BME280;46091;46.512;6.626;2023-03-31T09:02:14;96183.19;;;16.39;55.00
60228;BME280;46091;46.512;6.626;2023-03-31T09:04:29;96187.16;;;16.36;55.22
60228;BME280;46091;46.512;6.626;2023-03-31T09:06:48;96192.50;;;16.36;55.20
60228;BME280;46091;46.512;6.626;2023-03-31T09:08:58;96198.91;;;16.35;55.20
60228;BME280;46091;46.512;6.626;2023-03-31T09:11:09;96194.75;;;16.27;55.29
60228;BME280;46091;46.512;6.626;2023-03-31T09:13:41;96172.81;;;16.20;55.53
60228;BME280;46091;46.512;6.626;2023-03-31T09:15:50;96180.31;;;16.23;55.71
60228;BME280;46091;46.512;6.626;2023-03-31T09:18:02;96165.13;;;16.24;55.78
60228;BME280;46091;46.512;6.626;2023-03-31T09:20:12;96162.19;;;16.25;55.94
60228;BME280;46091;46.512;6.626;2023-03-31T09:22:23;96151.28;;;16.27;55.85
60228;BME280;46091;46.512;6.626;2023-03-31T09:24:29;96153.69;;;16.28;56.08
60228;BME280;46091;46.512;6.626;2023-03-31T09:26:37;96147.81;;;16.26;56.00
60228;BME280;46091;46.512;6.626;2023-03-31T09:28:42;96154.75;;;16.27;56.00
60228;BME280;46091;46.512;6.626;2023-03-31T09:30:47;96158.72;;;16.25;55.82
60228;BME280;46091;46.512;6.626;2023-03-31T09:32:55;96163.75;;;16.21;55.95
60228;BME280;46091;46.512;6.626;2023-03-31T09:35:05;96159.22;;;16.22;55.94
60228;BME280;46091;46.512;6.626;2023-03-31T09:37:16;96146.75;;;16.27;55.97
60228;BME280;46091;46.512;6.626;2023-03-31T09:39:21;96141.75;;;16.31;55.90
60228;BME280;46091;46.512;6.626;2023-03-31T09:41:24;96150.31;;;16.33;55.90
60228;BME280;46091;46.512;6.626;2023-03-31T09:43:32;96145.53;;;16.35;55.52
60228;BME280;46091;46.512;6.626;2023-03-31T09:45:38;96146.66;;;16.39;55.45
60228;BME280;46091;46.512;6.626;2023-03-31T09:47:44;96143.81;;;16.46;55.31
60228;BME280;46091;46.512;6.626;2023-03-31T09:49:53;96136.94;;;16.50;55.06
60228;BME280;46091;46.512;6.626;2023-03-31T09:52:01;96134.28;;;16.50;54.99
60228;BME280;46091;46.512;6.626;2023-03-31T09:54:11;96124.91;;;16.47;55.04
60228;BME280;46091;46.512;6.626;2023-03-31T09:56:31;96100.09;;;16.47;54.93
60228;BME280;46091;46.512;6.626;2023-03-31T09:58:39;96098.47;;;16.46;54.69
60228;BME280;46091;46.512;6.626;2023-03-31T10:00:58;96099.03;;;16.48;54.59
60228;BME280;46091;46.512;6.626;2023-03-31T10:03:03;96096.06;;;16.44;54.32
60228;BME280;46091;46.512;6.626;2023-03-31T10:05:20;96104.63;;;16.46;54.09
60228;BME280;46091;46.512;6.626;2023-03-31T10:07:24;96117.41;;;16.44;53.94
60228;BME280;46091;46.512;6.626;2023-03-31T10:09:30;96110.44;;;16.43;54.19
60228;BME280;46091;46.512;6.626;2023-03-31T10:11:35;96101.88;;;16.41;53.95
60228;BME280;46091;46.512;6.626;2023-03-31T10:13:44;96079.56;;;16.47;53.90
60228;BME280;46091;46.512;6.626;2023-03-31T10:15:52;96075.16;;;16.58;53.81
60228;BME280;46091;46.512;6.626;2023-03-31T10:17:57;96068.09;;;16.69;53.38
60228;BME280;46091;46.512;6.626;2023-03-31T10:20:11;96070.00;;;16.73;53.13
60228;BME280;46091;46.512;6.626;2023-03-31T10:22:27;96081.75;;;16.72;53.38
60228;BME280;46091;46.512;6.626;2023-03-31T10:24:38;96068.66;;;16.71;53.17
60228;BME280;46091;46.512;6.626;2023-03-31T10:26:42;96071.84;;;16.68;53.03
60228;BME280;46091;46.512;6.626;2023-03-31T10:28:47;96073.34;;;16.64;53.15
60228;BME280;46091;46.512;6.626;2023-03-31T10:30:55;96088.25;;;16.59;53.19
60228;BME280;46091;46.512;6.626;2023-03-31T10:33:04;96093.03;;;16.57;52.56
60228;BME280;46091;46.512;6.626;2023-03-31T10:35:25;96073.03;;;16.60;52.39
60228;BME280;46091;46.512;6.626;2023-03-31T10:37:28;96082.66;;;16.61;52.35
60228;BME280;46091;46.512;6.626;2023-03-31T10:39:32;96075.19;;;16.63;52.09
60228;BME280;46091;46.512;6.626;2023-03-31T10:41:35;96068.91;;;16.69;51.56
60228;BME280;46091;46.512;6.626;2023-03-31T10:43:41;96073.19;;;16.70;51.69
60228;BME280;46091;46.512;6.626;2023-03-31T10:45:47;96077.16;;;16.68;51.73
60228;BME280;46091;46.512;6.626;2023-03-31T10:47:54;96067.19;;;16.63;51.73
60228;BME280;46091;46.512;6.626;2023-03-31T10:49:57;96067.69;;;16.60;51.63
60228;BME280;46091;46.512;6.626;2023-03-31T10:52:00;96063.66;;;16.57;51.62
60228;BME280;46091;46.512;6.626;2023-03-31T10:54:03;96080.19;;;16.54;51.62
60228;BME280;46091;46.512;6.626;2023-03-31T10:56:33;96090.84;;;16.54;51.45
60228;BME280;46091;46.512;6.626;2023-03-31T10:59:02;96056.91;;;16.50;51.13
60228;BME280;46091;46.512;6.626;2023-03-31T11:01:19;96041.41;;;16.47;50.97
60228;BME280;46091;46.512;6.626;2023-03-31T11:03:41;96016.88;;;16.50;50.42
60228;BME280;46091;46.512;6.626;2023-03-31T11:05:55;96016.31;;;16.48;50.28
60228;BME280;46091;46.512;6.626;2023-03-31T11:08:09;96006.63;;;16.42;49.74
60228;BME280;46091;46.512;6.626;2023-03-31T11:10:33;96005.28;;;16.39;49.79
60228;BME280;46091;46.512;6.626;2023-03-31T11:12:41;95991.94;;;16.39;49.69
60228;BME280;46091;46.512;6.626;2023-03-31T11:14:58;96002.63;;;16.39;49.48
60228;BME280;46091;46.512;6.626;2023-03-31T11:17:12;96005.59;;;16.43;49.37
60228;BME280;46091;46.512;6.626;2023-03-31T11:19:30;96001.94;;;16.49;49.31
60228;BME280;46091;46.512;6.626;2023-03-31T11:21:48;96006.22;;;16.50;49.04
60228;BME280;46091;46.512;6.626;2023-03-31T11:24:01;95993.16;;;16.53;48.86
60228;BME280;46091;46.512;6.626;2023-03-31T11:26:09;95999.63;;;16.57;48.43
60228;BME280;46091;46.512;6.626;2023-03-31T11:28:29;95994.09;;;16.64;48.15
60228;BME280;46091;46.512;6.626;2023-03-31T11:30:37;95993.59;;;16.67;47.99
60228;BME280;46091;46.512;6.626;2023-03-31T11:32:47;96024.66;;;16.73;47.96
60228;BME280;46091;46.512;6.626;2023-03-31T11:35:15;96020.44;;;16.77;47.44
60228;BME280;46091;46.512;6.626;2023-03-31T11:37:33;96033.81;;;16.82;47.64
60228;BME280;46091;46.512;6.626;2023-03-31T11:39:53;96040.53;;;16.85;47.45
60228;BME280;46091;46.512;6.626;2023-03-31T11:42:00;96067.75;;;16.87;47.36
60228;BME280;46091;46.512;6.626;2023-03-31T11:44:08;96068.59;;;16.87;47.13
60228;BME280;46091;46.512;6.626;2023-03-31T11:46:15;96072.00;;;16.83;47.01
60228;BME280;46091;46.512;6.626;2023-03-31T11:48:27;96086.84;;;16.74;46.89
60228;BME280;46091;46.512;6.626;2023-03-31T11:50:37;96117.59;;;16.59;46.60
60228;BME280;46091;46.512;6.626;2023-03-31T11:52:49;96124.59;;;16.44;46.88
60228;BME280;46091;46.512;6.626;2023-03-31T11:54:58;96136.34;;;16.26;47.12
60228;BME280;46091;46.512;6.626;2023-03-31T11:57:09;96106.44;;;16.07;47.17
60228;BME280;46091;46.512;6.626;2023-03-31T11:59:16;96123.22;;;15.86;47.17
60228;BME280;46091;46.512;6.626;2023-03-31T12:01:24;96142.81;;;15.63;47.59
60228;BME280;46091;46.512;6.626;2023-03-31T12:03:37;96151.88;;;15.50;47.84
60228;BME280;46091;46.512;6.626;2023-03-31T12:05:49;96186.78;;;15.37;47.81
60228;BME280;46091;46.512;6.626;2023-03-31T12:08:02;96165.09;;;15.17;47.87
60228;BME280;46091;46.512;6.626;2023-03-31T12:10:16;96187.47;;;15.04;47.93
60228;BME280;46091;46.512;6.626;2023-03-31T12:12:24;96187.75;;;14.91;48.30
60228;BME280;46091;46.512;6.626;2023-03-31T12:14:33;96169.06;;;14.74;48.18
60228;BME280;46091;46.512;6.626;2023-03-31T12:16:42;96145.34;;;14.61;48.53
60228;BME280;46091;46.512;6.626;2023-03-31T12:18:56;96159.13;;;14.46;48.93
60228;BME280;46091;46.512;6.626;2023-03-31T12:21:04;96160.72;;;14.23;49.66
60228;BME280;46091;46.512;6.626;2023-03-31T12:23:12;96176.56;;;14.07;49.71
60228;BME280;46091;46.512;6.626;2023-03-31T12:25:20;96163.50;;;13.93;50.08
60228;BME280;46091;46.512;6.626;2023-03-31T12:27:29;96184.16;;;13.91;50.32
60228;BME280;46091;46.512;6.626;2023-03-31T12:29:37;96173.50;;;13.91;50.39
60228;BME280;46091;46.512;6.626;2023-03-31T12:31:43;96162.78;;;13.98;50.15
60228;BME280;46091;46.512;6.626;2023-03-31T12:33:51;96159.56;;;14.08;50.49
60228;BME280;46091;46.512;6.626;2023-03-31T12:36:08;96157.72;;;14.20;50.11
60228;BME280;46091;46.512;6.626;2023-03-31T12:38:28;96137.16;;;14.39;50.14
60228;BME280;46091;46.512;6.626;2023-03-31T12:40:49;96139.03;;;14.50;49.95
60228;BME280;46091;46.512;6.626;2023-03-31T12:43:26;96138.19;;;14.49;50.26
60228;BME280;46091;46.512;6.626;2023-03-31T12:45:35;96125.69;;;14.62;50.38
60228;BME280;46091;46.512;6.626;2023-03-31T12:47:55;96121.50;;;14.66;50.16
60228;BME280;46091;46.512;6.626;2023-03-31T12:50:28;96122.84;;;14.80;50.43
60228;BME280;46091;46.512;6.626;2023-03-31T12:52:43;96130.72;;;14.87;50.33
60228;BME280;46091;46.512;6.626;2023-03-31T12:57:32;96111.69;;;15.06;50.16
60228;BME280;46091;46.512;6.626;2023-03-31T12:59:39;96104.09;;;15.15;50.34
60228;BME280;46091;46.512;6.626;2023-03-31T13:02:16;96100.81;;;15.25;50.20
60228;BME280;46091;46.512;6.626;2023-03-31T13:04:26;96104.16;;;15.32;50.29
60228;BME280;46091;46.512;6.626;2023-03-31T13:06:53;96099.47;;;15.39;50.16
60228;BME280;46091;46.512;6.626;2023-03-31T13:08:59;96078.75;;;15.41;50.23
60228;BME280;46091;46.512;6.626;2023-03-31T13:11:04;96094.25;;;15.44;50.27
60228;BME280;46091;46.512;6.626;2023-03-31T13:13:13;96074.88;;;15.49;50.37
60228;BME280;46091;46.512;6.626;2023-03-31T13:15:26;96071.88;;;15.45;50.08
60228;BME280;46091;46.512;6.626;2023-03-31T13:17:32;96064.13;;;15.43;50.16
60228;BME280;46091;46.512;6.626;2023-03-31T13:19:39;96054.28;;;15.44;50.32
60228;BME280;46091;46.512;6.626;2023-03-31T13:21:54;96048.16;;;15.43;50.20
60228;BME280;46091;46.512;6.626;2023-03-31T13:24:00;96048.97;;;15.44;50.37
60228;BME280;46091;46.512;6.626;2023-03-31T13:26:04;96035.41;;;15.46;50.38
60228;BME280;46091;46.512;6.626;2023-03-31T13:28:14;96033.28;;;15.48;50.53
60228;BME280;46091;46.512;6.626;2023-03-31T13:30:47;96037.66;;;15.54;50.68
60228;BME280;46091;46.512;6.626;2023-03-31T13:33:02;96023.78;;;15.52;50.80
60228;BME280;46091;46.512;6.626;2023-03-31T13:35:13;96021.94;;;15.52;50.54
60228;BME280;46091;46.512;6.626;2023-03-31T13:37:28;96015.56;;;15.53;50.81
60228;BME280;46091;46.512;6.626;2023-03-31T13:39:49;96012.41;;;15.56;50.90
60228;BME280;46091;46.512;6.626;2023-03-31T13:42:07;96004.50;;;15.61;50.68
60228;BME280;46091;46.512;6.626;2023-03-31T13:44:34;96006.69;;;15.64;50.81
60228;BME280;46091;46.512;6.626;2023-03-31T13:46:56;96005.69;;;15.70;50.63
60228;BME280;46091;46.512;6.626;2023-03-31T13:49:20;95991.97;;;15.79;50.97
60228;BME280;46091;46.512;6.626;2023-03-31T13:51:33;95984.44;;;15.92;50.62
60228;BME280;46091;46.512;6.626;2023-03-31T13:54:13;95973.66;;;16.04;50.38
60228;BME280;46091;46.512;6.626;2023-03-31T13:56:33;95978.84;;;16.16;50.32
60228;BME280;46091;46.512;6.626;2023-03-31T13:59:05;95968.56;;;16.24;50.47
60228;BME280;46091;46.512;6.626;2023-03-31T14:01:48;95957.41;;;16.27;50.30
60228;BME280;46091;46.512;6.626;2023-03-31T14:04:02;95985.56;;;16.18;50.43
60228;BME280;46091;46.512;6.626;2023-03-31T14:06:13;95981.28;;;16.17;50.40
60228;BME280;46091;46.512;6.626;2023-03-31T14:08:28;95959.91;;;16.12;50.21
60228;BME280;46091;46.512;6.626;2023-03-31T14:10:36;95969.38;;;16.03;50.56
60228;BME280;46091;46.512;6.626;2023-03-31T14:12:40;95974.94;;;16.01;50.52
60228;BME280;46091;46.512;6.626;2023-03-31T14:14:52;95952.69;;;15.91;50.25
60228;BME280;46091;46.512;6.626;2023-03-31T14:17:00;95976.13;;;15.89;50.41
60228;BME280;46091;46.512;6.626;2023-03-31T14:19:18;95982.75;;;15.86;50.41
60228;BME280;46091;46.512;6.626;2023-03-31T14:21:29;96017.56;;;15.80;50.41
60228;BME280;46091;46.512;6.626;2023-03-31T14:23:45;96003.78;;;15.66;50.49
60228;BME280;46091;46.512;6.626;2023-03-31T14:25:57;96032.59;;;15.52;50.68
60228;BME280;46091;46.512;6.626;2023-03-31T14:28:15;96063.97;;;15.33;50.52
60228;BME280;46091;46.512;6.626;2023-03-31T14:30:29;96075.69;;;15.04;51.33
60228;BME280;46091;46.512;6.626;2023-03-31T14:32:39;96063.81;;;14.66;52.03
60228;BME280;46091;46.512;6.626;2023-03-31T14:34:56;96071.47;;;14.51;52.15
60228;BME280;46091;46.512;6.626;2023-03-31T14:37:05;96040.13;;;14.41;52.17
60228;BME280;46091;46.512;6.626;2023-03-31T14:39:13;96038.16;;;14.37;52.49
60228;BME280;46091;46.512;6.626;2023-03-31T14:41:19;96045.81;;;14.33;52.29
60228;BME280;46091;46.512;6.626;2023-03-31T14:43:33;96054.75;;;14.27;52.51
60228;BME280;46091;46.512;6.626;2023-03-31T14:45:37;96057.59;;;14.25;52.24
60228;BME280;46091;46.512;6.626;2023-03-31T14:47:40;96054.06;;;14.20;52.36
60228;BME280;46091;46.512;6.626;2023-03-31T14:49:43;96030.81;;;14.15;52.03
60228;BME280;46091;46.512;6.626;2023-03-31T14:51:46;96030.47;;;14.12;52.37
60228;BME280;46091;46.512;6.626;2023-03-31T14:53:55;95962.19;;;14.12;52.39
60228;BME280;46091;46.512;6.626;2023-03-31T14:56:03;95943.34;;;14.14;52.17
60228;BME280;46091;46.512;6.626;2023-03-31T14:58:11;95939.63;;;14.15;52.14
60228;BME280;46091;46.512;6.626;2023-03-31T15:00:23;95945.38;;;14.23;51.73
60228;BME280;46091;46.512;6.626;2023-03-31T15:02:31;95947.44;;;14.33;51.82
60228;BME280;46091;46.512;6.626;2023-03-31T15:04:39;95954.13;;;14.47;51.56
60228;BME280;46091;46.512;6.626;2023-03-31T15:06:46;95951.75;;;14.63;51.31
60228;BME280;46091;46.512;6.626;2023-03-31T15:08:54;95947.19;;;14.75;51.09
60228;BME280;46091;46.512;6.626;2023-03-31T15:11:00;95962.72;;;14.83;51.09
60228;BME280;46091;46.512;6.626;2023-03-31T15:13:15;95978.06;;;14.93;51.19
60228;BME280;46091;46.512;6.626;2023-03-31T15:15:22;96005.66;;;15.03;50.86
60228;BME280;46091;46.512;6.626;2023-03-31T15:17:28;96025.53;;;15.12;51.05
60228;BME280;46091;46.512;6.626;2023-03-31T15:19:34;96029.25;;;15.11;51.15
60228;BME280;46091;46.512;6.626;2023-03-31T15:21:37;96040.13;;;15.10;51.08
60228;BME280;46091;46.512;6.626;2023-03-31T15:23:40;96046.03;;;15.12;51.23
60228;BME280;46091;46.512;6.626;2023-03-31T15:25:43;96048.91;;;15.10;51.33
60228;BME280;46091;46.512;6.626;2023-03-31T15:27:50;96056.91;;;15.10;51.17
60228;BME280;46091;46.512;6.626;2023-03-31T15:29:57;96067.63;;;15.15;51.28
60228;BME280;46091;46.512;6.626;2023-03-31T15:32:07;96075.38;;;15.17;51.27
60228;BME280;46091;46.512;6.626;2023-03-31T15:34:19;96082.91;;;15.20;51.05
60228;BME280;46091;46.512;6.626;2023-03-31T15:36:24;96081.53;;;15.18;51.00
60228;BME280;46091;46.512;6.626;2023-03-31T15:38:29;96048.75;;;15.17;50.88
60228;BME280;46091;46.512;6.626;2023-03-31T15:40:35;96077.22;;;15.17;51.05
60228;BME280;46091;46.512;6.626;2023-03-31T15:42:40;96091.03;;;15.13;50.91
60228;BME280;46091;46.512;6.626;2023-03-31T15:44:53;96064.56;;;15.07;51.09
60228;BME280;46091;46.512;6.626;2023-03-31T15:46:58;96064.47;;;15.02;51.02
60228;BME280;46091;46.512;6.626;2023-03-31T15:49:04;96062.28;;;14.99;51.15
60228;BME280;46091;46.512;6.626;2023-03-31T15:51:18;96062.59;;;15.02;51.36
60228;BME280;46091;46.512;6.626;2023-03-31T15:53:25;96052.06;;;15.07;51.00
60228;BME280;46091;46.512;6.626;2023-03-31T15:55:31;96058.16;;;15.20;50.96
60228;BME280;46091;46.512;6.626;2023-03-31T15:57:43;96044.59;;;15.21;50.76
60228;BME280;46091;46.512;6.626;2023-03-31T15:59:46;96057.97;;;15.26;50.88
60228;BME280;46091;46.512;6.626;2023-03-31T16:02:13;96037.22;;;15.28;50.83
60228;BME280;46091;46.512;6.626;2023-03-31T16:04:19;96042.41;;;15.35;50.86
60228;BME280;46091;46.512;6.626;2023-03-31T16:06:33;96037.66;;;15.37;50.64
60228;BME280;46091;46.512;6.626;2023-03-31T16:08:41;96025.25;;;15.42;50.73
60228;BME280;46091;46.512;6.626;2023-03-31T16:10:46;96028.47;;;15.44;50.47
60228;BME280;46091;46.512;6.626;2023-03-31T16:12:53;96031.44;;;15.48;50.46
60228;BME280;46091;46.512;6.626;2023-03-31T16:15:00;96033.59;;;15.51;50.61
60228;BME280;46091;46.512;6.626;2023-03-31T16:17:06;96023.78;;;15.52;50.53
60228;BME280;46091;46.512;6.626;2023-03-31T16:19:11;96022.50;;;15.54;50.64
60228;BME280;46091;46.512;6.626;2023-03-31T16:21:19;96023.06;;;15.56;50.42
60228;BME280;46091;46.512;6.626;2023-03-31T16:23:25;96039.28;;;15.55;50.31
60228;BME280;46091;46.512;6.626;2023-03-31T16:25:30;96055.16;;;15.50;50.12
60228;BME280;46091;46.512;6.626;2023-03-31T16:27:38;96059.63;;;15.44;50.33
60228;BME280;46091;46.512;6.626;2023-03-31T16:29:41;96055.81;;;15.40;50.28
60228;BME280;46091;46.512;6.626;2023-03-31T16:31:44;96066.44;;;15.40;50.14
60228;BME280;46091;46.512;6.626;2023-03-31T16:33:52;96071.22;;;15.38;50.38
60228;BME280;46091;46.512;6.626;2023-03-31T16:35:56;96086.56;;;15.31;50.42
60228;BME280;46091;46.512;6.626;2023-03-31T16:38:00;96077.41;;;15.27;50.41
60228;BME280;46091;46.512;6.626;2023-03-31T16:40:05;96080.06;;;15.27;50.45
60228;BME280;46091;46.512;6.626;2023-03-31T16:42:08;96105.19;;;15.31;50.54
60228;BME280;46091;46.512;6.626;2023-03-31T16:44:11;96104.41;;;15.30;50.20
60228;BME280;46091;46.512;6.626;2023-03-31T16:46:14;96098.25;;;15.30;49.92
60228;BME280;46091;46.512;6.626;2023-03-31T16:48:18;96116.91;;;15.30;49.81